This is the latest recevied weather packets stored in our database for station/object N4QD-13. If no packets are shown the sender has not sent any weather packets the latest 10 day(s).
| Time | Temp. | Humidity | Pressure | Rain* | Wind** | Luminosity | Snow |
|---|---|---|---|---|---|---|---|
| 1777485795 | 15.56° C | 99% | 1010.9 hPa | 0 mm | - | 254 W/m² | - |
| 1777485491 | 15.56° C | 99% | 1011.4 hPa | 1.27 mm | - | 178 W/m² | - |
| 1777485187 | 15.56° C | 99% | 1011.6 hPa | 1.27 mm | - | 149 W/m² | - |
| 1777484883 | 15.56° C | 99% | 1011.5 hPa | 1.78 mm | - | 131 W/m² | - |
| 1777484581 | 15° C | 99% | 1011.7 hPa | 3.05 mm | - | 124 W/m² | - |
| 1777484277 | 15° C | 99% | 1011.5 hPa | 1.27 mm | - | 142 W/m² | - |
| 1777483973 | 15° C | 99% | 1012.1 hPa | 1.78 mm | - | 127 W/m² | - |
| 1777483670 | 15.56° C | 99% | 1012.1 hPa | 3.05 mm | - | 121 W/m² | - |
| 1777483365 | 15° C | 99% | 1012.3 hPa | 1.27 mm | - | 123 W/m² | - |
| 1777483061 | 15° C | 99% | 1012.4 hPa | 1.78 mm | - | 115 W/m² | - |
| 1777482758 | 15° C | 99% | 1012.5 hPa | 3.05 mm | - | 106 W/m² | - |
| 1777482454 | 15° C | 99% | 1012.5 hPa | 3.05 mm | - | 98 W/m² | - |
| 1777482152 | 15° C | 99% | 1012.9 hPa | 3.56 mm | - | 115 W/m² | - |
| 1777481849 | 15° C | 99% | 1013.1 hPa | 3.05 mm | - | 113 W/m² | - |
| 1777481546 | 15° C | 99% | 1013 hPa | 3.05 mm | - | 131 W/m² | - |
| 1777481243 | 15° C | 99% | 1013.1 hPa | 4.83 mm | - | 121 W/m² | - |
| 1777480940 | 15° C | 99% | 1013.4 hPa | 8.89 mm | - | 107 W/m² | - |
| 1777480636 | 15° C | 99% | 1013.4 hPa | 8.89 mm | - | 70 W/m² | - |
| 1777480333 | 15° C | 99% | 1013.6 hPa | 4.32 mm | - | 72 W/m² | - |
| 1777480029 | 15° C | 99% | 1013.8 hPa | 1.27 mm | - | 48 W/m² | - |
| 1777479726 | 15° C | 99% | 1013.5 hPa | 1.78 mm | - | 95 W/m² | - |
| 1777479424 | 15° C | 99% | 1013.8 hPa | 1.78 mm | - | 82 W/m² | - |
| 1777479120 | 15° C | 99% | 1013.7 hPa | 0 mm | - | 70 W/m² | - |
| 1777478817 | 15° C | 99% | 1013.7 hPa | 0 mm | - | 66 W/m² | - |
| 1777478513 | 15° C | 99% | 1013.7 hPa | 0 mm | - | 67 W/m² | - |
* Rain latest hour (hover to see other rain measurements)
** Current wind speed in m/s (hover to see current wind gust speed)